Time;durP1;ratioP1;P1;durP2;ratioP2;P2;SDS_P1;SDS_P2;PMS_P1;PMS_P2;Temp;Humidity;BMP_temperature;BMP_pressure;BME280_temperature;BME280_humidity;BME280_pressure;Samples;Min_cycle;Max_cycle;Signal;HPM_P1;HPM_P2
2022/12/29 00:01:55;;;;;;;6.00;5.57;;;;;;;1.11;100.00;96789.41;5040362;28;20207;-67
2022/12/29 00:04:23;;;;;;;6.27;5.80;;;;;;;1.14;100.00;96779.53;5038115;28;20507;-70
2022/12/29 00:06:51;;;;;;;5.67;5.27;;;;;;;1.22;100.00;96788.47;4997753;28;20223;-70
2022/12/29 00:09:20;;;;;;;7.17;6.47;;;;;;;1.27;100.00;96775.84;5031749;28;20574;-68
2022/12/29 00:11:47;;;;;;;6.07;5.67;;;;;;;1.28;100.00;96790.53;5042419;28;20219;-67
2022/12/29 00:17:00;;;;;;;5.70;5.30;;;;;;;1.34;100.00;96776.13;5041710;28;21115;-70
2022/12/29 00:36:09;;;;;;;6.23;5.67;;;;;;;1.64;100.00;96746.44;5039543;28;20229;-68
2022/12/29 00:44:13;;;;;;;5.50;5.10;;;;;;;1.54;100.00;96745.63;5035443;28;20393;-68
2022/12/29 00:46:42;;;;;;;6.20;5.50;;;;;;;1.49;100.00;96742.63;5036555;28;20220;-67
2022/12/29 00:51:58;;;;;;;5.97;5.43;;;;;;;1.47;100.00;96739.31;5032481;28;20710;-67
2022/12/29 00:54:25;;;;;;;5.27;4.87;;;;;;;1.47;100.00;96739.31;5039616;28;20484;-68
2022/12/29 00:56:54;;;;;;;6.17;5.57;;;;;;;1.46;100.00;96737.66;4998363;28;20237;-67
2022/12/29 00:59:23;;;;;;;6.40;5.77;;;;;;;1.51;100.00;96745.91;5036824;28;20195;-68
2022/12/29 01:01:52;;;;;;;5.83;5.33;;;;;;;1.48;100.00;96740.97;5034222;28;20203;-68
2022/12/29 01:04:21;;;;;;;5.60;5.20;;;;;;;1.47;100.00;96744.53;5041772;28;20456;-69
2022/12/29 01:06:49;;;;;;;5.97;5.47;;;;;;;1.46;100.00;96742.88;5018625;28;20337;-67
2022/12/29 01:12:04;;;;;;;5.60;5.10;;;;;;;1.53;100.00;96743.97;4997584;28;21526;-68
2022/12/29 01:14:32;;;;;;;5.93;5.43;;;;;;;1.51;100.00;96733.66;5039540;28;20218;-69
2022/12/29 01:17:00;;;;;;;6.10;5.50;;;;;;;1.56;100.00;96734.09;5038695;28;20226;-67
2022/12/29 01:19:28;;;;;;;5.30;4.90;;;;;;;1.53;100.00;96741.38;5041069;28;20234;-69
2022/12/29 01:21:55;;;;;;;5.90;5.50;;;;;;;1.57;100.00;96745.34;5019904;28;20218;-66
2022/12/29 01:24:24;;;;;;;6.43;5.90;;;;;;;1.59;100.00;96740.81;5045202;28;20582;-69
2022/12/29 01:26:51;;;;;;;5.53;5.13;;;;;;;1.59;100.00;96744.25;5037660;28;20320;-67
2022/12/29 01:29:20;;;;;;;5.47;5.07;;;;;;;1.69;100.00;96725.16;4989437;28;20438;-69
2022/12/29 01:31:49;;;;;;;5.53;5.17;;;;;;;1.66;100.00;96741.91;5031160;28;20616;-67
2022/12/29 01:34:17;;;;;;;6.47;5.87;;;;;;;1.65;100.00;96721.97;5033076;28;20207;-71
2022/12/29 01:36:45;;;;;;;5.87;5.37;;;;;;;1.64;100.00;96735.19;5031175;28;20224;-69
2022/12/29 01:39:13;;;;;;;5.37;4.97;;;;;;;1.70;100.00;96732.81;5032327;28;20207;-69
2022/12/29 01:41:41;;;;;;;5.60;5.07;;;;;;;1.70;100.00;96730.22;5041266;28;20206;-68
2022/12/29 01:44:42;;;;;;;5.43;5.03;;;;;;;1.70;100.00;96716.34;5000530;28;20463;-71
2022/12/29 01:47:11;;;;;;;6.73;5.37;;;;;;;1.71;100.00;96723.22;5042908;28;20324;-70
2022/12/29 01:49:39;;;;;;;5.47;5.17;;;;;;;1.68;100.00;96710.44;5049361;28;20237;-68
2022/12/29 01:52:08;;;;;;;5.50;5.10;;;;;;;1.65;100.00;96726.38;5042514;28;20499;-71
2022/12/29 01:54:39;;;;;;;5.03;4.63;;;;;;;1.68;100.00;96708.63;5030846;28;20238;-70
2022/12/29 01:57:09;;;;;;;5.10;4.80;;;;;;;1.69;100.00;96707.66;5040635;28;20223;-69
2022/12/29 01:59:40;;;;;;;5.03;4.73;;;;;;;1.64;100.00;96702.03;5044623;28;20706;-70
2022/12/29 02:02:08;;;;;;;5.47;5.10;;;;;;;1.67;100.00;96699.16;5012155;28;20208;-70
2022/12/29 02:04:40;;;;;;;5.13;4.73;;;;;;;1.69;100.00;96697.22;5047487;28;20202;-71
2022/12/29 02:07:11;;;;;;;5.47;5.03;;;;;;;1.68;100.00;96702.59;5043888;28;20223;-70
2022/12/29 02:09:39;;;;;;;5.67;5.17;;;;;;;1.66;100.00;96691.47;5027261;28;20223;-68
2022/12/29 02:12:07;;;;;;;6.37;4.73;;;;;;;1.61;100.00;96689.25;5045065;28;20281;-70
2022/12/29 02:14:34;;;;;;;5.30;4.93;;;;;;;1.63;100.00;96694.38;5044207;28;20211;-69
2022/12/29 02:17:11;;;;;;;5.60;5.23;;;;;;;1.58;100.00;96686.94;4999254;28;20358;-68
2022/12/29 02:19:59;;;;;;;5.03;4.67;;;;;;;1.48;100.00;96688.75;5043833;28;20440;-68
2022/12/29 02:22:31;;;;;;;5.13;4.73;;;;;;;1.51;100.00;96688.47;5033144;28;20307;-68
2022/12/29 02:25:34;;;;;;;5.47;5.07;;;;;;;1.44;100.00;96681.19;5018003;28;20584;-70
2022/12/29 02:28:21;;;;;;;4.73;4.43;;;;;;;1.41;100.00;96678.03;5042080;28;20241;-70
2022/12/29 02:30:58;;;;;;;4.77;4.37;;;;;;;1.37;100.00;96690.53;4994929;28;20231;-69
2022/12/29 02:33:37;;;;;;;5.10;4.67;;;;;;;1.43;100.00;96687.38;5011923;28;20223;-66
2022/12/29 02:36:09;;;;;;;5.07;4.77;;;;;;;1.56;100.00;96692.31;5043968;28;20430;-69
2022/12/29 02:38:51;;;;;;;4.07;3.77;;;;;;;1.61;100.00;96685.84;5037113;28;20243;-70
2022/12/29 02:41:23;;;;;;;4.90;4.60;;;;;;;1.77;100.00;96690.50;5044175;28;20685;-66
2022/12/29 02:43:55;;;;;;;5.00;4.60;;;;;;;1.79;100.00;96680.72;5032820;28;20195;-69
2022/12/29 02:46:29;;;;;;;4.27;4.07;;;;;;;1.84;100.00;96673.28;5032088;28;20212;-68
2022/12/29 02:49:02;;;;;;;5.47;5.03;;;;;;;1.85;100.00;96669.72;5040199;28;20214;-70
2022/12/29 02:51:33;;;;;;;5.27;4.87;;;;;;;1.84;100.00;96665.44;4988614;28;20228;-69
2022/12/29 02:56:57;;;;;;;5.17;4.33;;;;;;;1.76;100.00;96663.53;4971433;28;20229;-70
2022/12/29 02:59:24;;;;;;;4.97;4.67;;;;;;;1.74;100.00;96660.25;5028953;28;20222;-68
2022/12/29 03:02:20;;;;;;;4.80;4.40;;;;;;;1.78;100.00;96664.22;5024823;28;20482;-71
2022/12/29 03:05:12;;;;;;;5.63;4.90;;;;;;;1.88;100.00;96657.16;4997222;28;25979;-70
2022/12/29 03:07:45;;;;;;;5.80;4.63;;;;;;;1.91;100.00;96655.25;5036713;28;20269;-70
2022/12/29 03:10:21;;;;;;;4.60;4.20;;;;;;;1.88;100.00;96653.75;5039511;28;20312;-71
2022/12/29 03:16:03;;;;;;;4.30;4.00;;;;;;;1.94;100.00;96650.56;5040998;28;20395;-70
2022/12/29 03:18:42;;;;;;;4.53;4.20;;;;;;;1.93;100.00;96645.50;5026128;28;20610;-68
2022/12/29 03:21:13;;;;;;;5.40;5.00;;;;;;;1.95;100.00;96651.41;5001062;28;20218;-68
2022/12/29 03:23:43;;;;;;;5.27;4.93;;;;;;;1.98;100.00;96653.72;5039968;28;20622;-70
2022/12/29 03:26:12;;;;;;;4.63;4.23;;;;;;;2.01;100.00;96650.81;5044848;28;20199;-71
2022/12/29 03:28:44;;;;;;;4.87;4.53;;;;;;;2.00;100.00;96647.38;5042105;28;20359;-70
2022/12/29 03:31:12;;;;;;;4.70;4.40;;;;;;;1.97;100.00;96641.63;5042154;28;20231;-71
2022/12/29 03:33:42;;;;;;;4.53;4.23;;;;;;;2.07;100.00;96644.19;5029955;28;20207;-70
2022/12/29 03:36:13;;;;;;;6.77;4.63;;;;;;;2.05;100.00;96643.50;5001945;28;20610;-70
2022/12/29 03:38:43;;;;;;;4.27;3.97;;;;;;;2.01;100.00;96638.56;5037400;28;20457;-70
2022/12/29 03:41:15;;;;;;;5.00;4.60;;;;;;;2.03;100.00;96639.25;5040026;28;20310;-70
2022/12/29 03:43:42;;;;;;;5.17;4.57;;;;;;;2.03;100.00;96636.63;5036041;28;20199;-68
2022/12/29 03:46:10;;;;;;;4.47;4.17;;;;;;;2.00;100.00;96639.53;5042606;28;20760;-68
2022/12/29 03:48:38;;;;;;;4.30;3.83;;;;;;;2.01;100.00;96641.19;5025066;28;20822;-69
2022/12/29 03:51:07;;;;;;;4.37;4.07;;;;;;;2.01;100.00;96635.94;5000630;28;20219;-68
2022/12/29 03:53:34;;;;;;;4.20;3.80;;;;;;;2.06;100.00;96639.91;5041260;28;20203;-68
2022/12/29 03:56:02;;;;;;;4.60;4.30;;;;;;;2.10;100.00;96633.47;5044549;28;20215;-70
2022/12/29 03:58:29;;;;;;;3.63;3.40;;;;;;;2.14;100.00;96640.03;5038409;28;20223;-69
2022/12/29 04:00:57;;;;;;;4.20;3.90;;;;;;;2.16;100.00;96632.88;5039976;28;20206;-70
2022/12/29 04:03:25;;;;;;;4.43;4.17;;;;;;;2.17;100.00;96642.38;5036664;28;20210;-67
2022/12/29 04:05:52;;;;;;;4.37;3.97;;;;;;;2.17;100.00;96634.53;5037995;28;20402;-70
2022/12/29 04:08:21;;;;;;;4.40;4.10;;;;;;;2.17;100.00;96643.19;4997903;28;20231;-68
2022/12/29 04:10:49;;;;;;;4.47;4.17;;;;;;;2.14;100.00;96638.25;5044764;28;20324;-69
2022/12/29 04:13:16;;;;;;;4.73;4.33;;;;;;;2.16;100.00;96641.53;5034903;28;20214;-68
2022/12/29 04:15:45;;;;;;;5.03;3.80;;;;;;;2.19;100.00;96637.81;5043392;28;20226;-70
2022/12/29 04:18:13;;;;;;;4.03;3.73;;;;;;;2.21;100.00;96640.28;5043059;28;20227;-70
2022/12/29 04:23:28;;;;;;;4.80;4.10;;;;;;;2.20;100.00;96641.25;4988256;28;20211;-67
2022/12/29 04:25:55;;;;;;;3.87;3.57;;;;;;;2.23;100.00;96636.56;5040593;28;20416;-69
2022/12/29 04:28:23;;;;;;;4.93;4.30;;;;;;;2.25;100.00;96634.63;5029430;28;20229;-69
2022/12/29 04:30:51;;;;;;;4.20;3.90;;;;;;;2.27;100.00;96645.75;5041698;28;20430;-70
2022/12/29 04:33:19;;;;;;;4.07;3.73;;;;;;;2.25;100.00;96633.78;5043754;28;20199;-69
2022/12/29 04:35:47;;;;;;;4.67;4.27;;;;;;;2.31;100.00;96644.50;5017900;28;20651;-64
2022/12/29 04:38:15;;;;;;;4.50;4.20;;;;;;;2.39;100.00;96640.31;4963478;28;20246;-68
2022/12/29 04:40:46;;;;;;;4.03;3.77;;;;;;;2.31;100.00;96639.25;5043180;28;20203;-73
2022/12/29 04:43:14;;;;;;;4.33;4.00;;;;;;;2.22;100.00;96634.91;4975634;28;20222;-69
2022/12/29 04:45:44;;;;;;;4.73;4.33;;;;;;;2.22;100.00;96628.84;5030150;28;20811;-69
2022/12/29 04:48:12;;;;;;;4.50;4.20;;;;;;;2.18;100.00;96633.56;5027721;28;20235;-67
2022/12/29 04:50:40;;;;;;;3.97;3.67;;;;;;;2.20;100.00;96631.63;5035293;28;20527;-71
2022/12/29 04:53:08;;;;;;;4.20;3.90;;;;;;;2.25;100.00;96634.63;5028764;28;20221;-68
2022/12/29 04:55:35;;;;;;;3.97;3.67;;;;;;;2.23;100.00;96636.56;5043895;28;20280;-70
2022/12/29 04:58:04;;;;;;;3.80;3.50;;;;;;;2.24;100.00;96627.75;5000374;28;20375;-70
2022/12/29 05:00:32;;;;;;;4.87;4.27;;;;;;;2.28;100.00;96639.56;5031100;28;20346;-70
2022/12/29 05:03:00;;;;;;;4.77;3.73;;;;;;;2.27;100.00;96635.31;5041824;28;20204;-68
2022/12/29 05:05:28;;;;;;;3.50;3.30;;;;;;;2.29;100.00;96628.13;5031958;28;20691;-69
2022/12/29 05:07:56;;;;;;;3.90;3.70;;;;;;;2.30;100.00;96648.06;5035084;28;20237;-70
2022/12/29 05:10:24;;;;;;;4.43;4.13;;;;;;;2.28;100.00;96655.25;5021208;28;20492;-68
2022/12/29 05:12:51;;;;;;;4.40;4.10;;;;;;;2.27;100.00;96640.53;5046011;28;20614;-71
2022/12/29 05:15:20;;;;;;;4.80;4.13;;;;;;;2.28;100.00;96647.41;4996847;28;20222;-69
2022/12/29 05:17:48;;;;;;;4.13;3.83;;;;;;;2.31;100.00;96641.88;5042756;28;20249;-70
2022/12/29 05:20:15;;;;;;;5.03;4.10;;;;;;;2.35;100.00;96636.34;5044147;28;20203;-68
2022/12/29 05:22:43;;;;;;;4.37;3.87;;;;;;;2.27;100.00;96640.53;5044651;28;20591;-69
2022/12/29 05:25:11;;;;;;;5.13;4.27;;;;;;;2.20;100.00;96641.25;5031010;28;20327;-68
2022/12/29 05:27:39;;;;;;;4.50;4.10;;;;;;;2.17;100.00;96640.56;5047263;28;20226;-71
2022/12/29 05:30:07;;;;;;;4.27;3.97;;;;;;;2.18;100.00;96644.00;5003557;28;20207;-68
2022/12/29 05:32:36;;;;;;;4.17;3.70;;;;;;;2.14;100.00;96642.66;5037547;28;20231;-69
2022/12/29 05:35:05;;;;;;;3.60;3.40;;;;;;;2.21;100.00;96642.88;5046739;28;20210;-69
2022/12/29 05:37:32;;;;;;;3.90;3.70;;;;;;;2.23;100.00;96644.41;5036493;28;20519;-69
2022/12/29 05:40:00;;;;;;;4.10;3.80;;;;;;;2.20;100.00;96639.47;5032237;28;20206;-70
2022/12/29 05:42:27;;;;;;;4.57;4.27;;;;;;;2.17;100.00;96648.41;5040377;28;20203;-68
2022/12/29 05:44:55;;;;;;;4.70;4.30;;;;;;;2.11;100.00;96635.91;5001081;28;20775;-70
2022/12/29 05:47:22;;;;;;;4.57;3.77;;;;;;;2.09;100.00;96634.44;5037936;28;20219;-67
2022/12/29 05:49:51;;;;;;;4.53;4.13;;;;;;;1.98;100.00;96641.47;5041296;28;20254;-71
2022/12/29 05:52:19;;;;;;;4.37;3.97;;;;;;;1.88;100.00;96633.66;5038647;28;20241;-69
2022/12/29 05:54:46;;;;;;;4.30;4.00;;;;;;;1.79;100.00;96639.75;5041501;28;20444;-70
2022/12/29 05:57:14;;;;;;;5.13;4.73;;;;;;;1.75;100.00;96648.03;5017330;28;20246;-68
2022/12/29 05:59:42;;;;;;;3.93;3.60;;;;;;;1.76;100.00;96639.22;5038774;28;20311;-70
2022/12/29 06:02:10;;;;;;;4.23;4.03;;;;;;;1.79;100.00;96644.16;5003866;28;20218;-68
2022/12/29 06:04:37;;;;;;;4.23;3.93;;;;;;;1.83;100.00;96650.75;5030412;28;20644;-70
2022/12/29 06:07:06;;;;;;;4.77;4.20;;;;;;;1.88;100.00;96654.56;5046372;28;20229;-66
2022/12/29 06:09:34;;;;;;;4.67;4.20;;;;;;;1.92;100.00;96649.88;5047765;28;20772;-70
2022/12/29 06:12:01;;;;;;;5.03;4.40;;;;;;;1.91;100.00;96656.06;5032848;28;20223;-69
2022/12/29 06:14:29;;;;;;;4.47;4.13;;;;;;;1.97;100.00;96647.66;5044760;28;20425;-69
2022/12/29 06:16:56;;;;;;;4.53;4.23;;;;;;;1.97;100.00;96652.88;5001339;28;20240;-69
2022/12/29 06:19:24;;;;;;;4.43;4.03;;;;;;;1.95;100.00;96651.41;5040504;28;20477;-68
2022/12/29 06:21:52;;;;;;;4.50;4.03;;;;;;;1.99;100.00;96650.94;5044117;28;20202;-68
2022/12/29 06:24:21;;;;;;;3.90;3.60;;;;;;;2.02;100.00;96649.84;5046776;28;20206;-69
2022/12/29 06:26:49;;;;;;;3.97;3.67;;;;;;;2.02;100.00;96655.88;5045037;28;20634;-70
2022/12/29 06:29:17;;;;;;;3.80;3.60;;;;;;;2.00;100.00;96649.97;5028532;28;20307;-68
2022/12/29 06:31:45;;;;;;;4.43;4.03;;;;;;;1.99;100.00;96642.31;5005758;28;20463;-70
2022/12/29 06:34:13;;;;;;;4.17;3.87;;;;;;;2.03;100.00;96651.50;5045096;28;20226;-67
2022/12/29 06:36:41;;;;;;;4.63;4.23;;;;;;;2.02;100.00;96657.69;5041072;28;20207;-70
2022/12/29 06:39:08;;;;;;;4.33;4.03;;;;;;;2.02;100.00;96660.31;5052842;28;20324;-69
2022/12/29 06:41:37;;;;;;;5.93;5.53;;;;;;;1.91;100.00;96652.66;5054488;28;20583;-70
2022/12/29 06:44:05;;;;;;;4.07;3.73;;;;;;;1.88;100.00;96656.34;5043888;28;20313;-68
2022/12/29 06:46:33;;;;;;;4.40;4.00;;;;;;;1.76;100.00;96662.72;5008079;28;20221;-66
2022/12/29 06:49:00;;;;;;;3.97;3.70;;;;;;;1.69;100.00;96665.06;5004101;28;26064;-67
2022/12/29 06:51:28;;;;;;;4.37;3.97;;;;;;;1.67;100.00;96669.63;5057145;28;20869;-70
2022/12/29 06:53:55;;;;;;;4.73;4.43;;;;;;;1.56;100.00;96665.38;5057928;28;20244;-69
2022/12/29 06:56:23;;;;;;;5.20;3.83;;;;;;;1.50;100.00;96664.13;5034628;28;20210;-68
2022/12/29 06:58:52;;;;;;;4.23;3.93;;;;;;;1.46;100.00;96662.75;5044751;28;20384;-69
2022/12/29 07:01:19;;;;;;;4.43;4.00;;;;;;;1.49;100.00;96661.66;5027429;28;20208;-70
2022/12/29 07:03:47;;;;;;;4.13;3.83;;;;;;;1.48;100.00;96663.44;5032432;28;20199;-68
2022/12/29 07:06:14;;;;;;;4.43;4.07;;;;;;;1.42;100.00;96664.00;5001486;28;20298;-69
2022/12/29 07:08:43;;;;;;;4.30;4.03;;;;;;;1.36;100.00;96661.94;5029949;28;20557;-71
2022/12/29 07:11:10;;;;;;;4.30;4.00;;;;;;;1.37;100.00;96659.22;5056704;28;20696;-68
2022/12/29 07:13:38;;;;;;;4.67;4.27;;;;;;;1.34;100.00;96658.66;5036014;28;20233;-69
2022/12/29 07:16:08;;;;;;;4.83;4.10;;;;;;;1.42;100.00;96664.00;5039559;28;20199;-70
2022/12/29 07:18:36;;;;;;;4.20;4.00;;;;;;;1.53;100.00;96663.03;5028002;28;20673;-67
2022/12/29 07:21:04;;;;;;;4.40;4.10;;;;;;;1.58;100.00;96663.44;5010269;28;20310;-67
2022/12/29 07:23:31;;;;;;;5.30;4.90;;;;;;;1.57;100.00;96667.84;5023145;28;20214;-67
2022/12/29 07:26:00;;;;;;;7.03;6.33;;;;;;;1.56;100.00;96667.97;5022258;28;20229;-70
2022/12/29 07:28:28;;;;;;;8.87;7.97;;;;;;;1.55;100.00;96663.72;5041228;28;20230;-69
2022/12/29 07:30:55;;;;;;;5.03;4.53;;;;;;;1.56;100.00;96654.91;5016566;28;20691;-71
2022/12/29 07:33:24;;;;;;;5.60;5.10;;;;;;;1.55;100.00;96666.31;5021111;28;20446;-69
2022/12/29 07:35:52;;;;;;;4.70;4.40;;;;;;;1.48;100.00;96654.81;4993584;28;20210;-68
2022/12/29 07:38:20;;;;;;;5.97;5.40;;;;;;;1.70;100.00;96659.69;5016550;28;20468;-64
2022/12/29 07:40:47;;;;;;;5.00;4.70;;;;;;;1.69;100.00;96658.03;5033875;28;20429;-69
2022/12/29 07:43:15;;;;;;;5.53;5.03;;;;;;;1.65;100.00;96650.66;5041640;28;20226;-66
2022/12/29 07:45:43;;;;;;;4.80;4.33;;;;;;;1.63;100.00;96653.38;5016036;28;20648;-67
2022/12/29 07:48:10;;;;;;;4.60;4.20;;;;;;;1.64;100.00;96641.16;5022114;28;20230;-67
2022/12/29 07:50:39;;;;;;;5.23;4.57;;;;;;;1.65;100.00;96648.84;5006673;28;20198;-67
2022/12/29 07:53:07;;;;;;;4.60;4.20;;;;;;;1.65;100.00;96645.44;5038757;28;20229;-69
2022/12/29 07:55:35;;;;;;;5.87;4.87;;;;;;;1.67;100.00;96651.34;5024172;28;20603;-67
2022/12/29 07:58:02;;;;;;;4.97;4.50;;;;;;;1.67;100.00;96640.88;5039262;28;20232;-69
2022/12/29 08:00:30;;;;;;;4.80;4.40;;;;;;;1.66;100.00;96639.22;5019796;28;20865;-67
2022/12/29 08:02:57;;;;;;;4.40;4.00;;;;;;;1.75;100.00;96634.97;5041235;28;20913;-68
2022/12/29 08:05:25;;;;;;;4.70;4.30;;;;;;;1.83;100.00;96650.75;5021718;28;20444;-67
2022/12/29 08:07:54;;;;;;;6.03;4.03;;;;;;;1.93;100.00;96655.94;4995215;28;20831;-68
2022/12/29 08:10:22;;;;;;;3.70;3.40;;;;;;;1.96;100.00;96666.91;5023868;28;20334;-69
2022/12/29 08:12:50;;;;;;;5.17;4.50;;;;;;;2.07;100.00;96667.69;5037369;28;20414;-68
2022/12/29 08:15:18;;;;;;;4.33;4.03;;;;;;;2.15;100.00;96670.44;5038889;28;20217;-68
2022/12/29 08:17:45;;;;;;;3.93;3.63;;;;;;;2.20;100.00;96678.66;5043269;28;20219;-68
2022/12/29 08:20:13;;;;;;;3.73;3.53;;;;;;;2.28;100.00;96670.94;5021598;28;20219;-69
2022/12/29 08:22:41;;;;;;;4.20;3.90;;;;;;;2.35;100.00;96670.34;4998322;28;20218;-66
2022/12/29 08:25:10;;;;;;;3.73;3.50;;;;;;;2.44;100.00;96672.09;5023217;28;20610;-68
2022/12/29 08:27:38;;;;;;;3.90;3.60;;;;;;;2.51;100.00;96669.72;5040742;28;20581;-66
2022/12/29 08:30:06;;;;;;;4.00;3.70;;;;;;;2.57;100.00;96669.97;5039129;28;20571;-69
2022/12/29 08:32:34;;;;;;;4.27;3.97;;;;;;;2.64;100.00;96674.63;5043738;28;20217;-66
2022/12/29 08:35:02;;;;;;;3.60;3.40;;;;;;;2.69;100.00;96688.06;5024920;28;20207;-68
2022/12/29 08:37:29;;;;;;;4.73;4.33;;;;;;;2.73;100.00;96687.66;4995375;28;20222;-67
2022/12/29 08:39:58;;;;;;;4.13;3.73;;;;;;;2.80;100.00;96677.38;5035884;28;20200;-66
2022/12/29 08:42:30;;;;;;;4.13;3.87;;;;;;;2.86;99.35;96683.84;5024272;28;20213;-66
2022/12/29 08:44:58;;;;;;;3.77;3.57;;;;;;;2.97;98.79;96674.97;5046344;28;20404;-68
2022/12/29 08:47:26;;;;;;;4.77;4.30;;;;;;;2.98;97.99;96681.84;5047251;28;20225;-68
2022/12/29 08:49:54;;;;;;;5.90;4.87;;;;;;;2.94;98.24;96683.13;5046617;28;20414;-65
2022/12/29 08:52:21;;;;;;;5.27;4.87;;;;;;;2.95;97.13;96682.13;5022421;28;20207;-69
2022/12/29 08:54:50;;;;;;;5.17;4.60;;;;;;;2.95;97.51;96682.13;5002847;28;20238;-69
2022/12/29 08:57:18;;;;;;;4.20;3.90;;;;;;;2.96;96.90;96681.97;4993100;28;20223;-70
2022/12/29 08:59:47;;;;;;;4.43;4.00;;;;;;;2.98;96.63;96679.22;5043592;28;20203;-69
2022/12/29 09:02:14;;;;;;;4.60;4.30;;;;;;;2.98;97.16;96684.47;5044082;28;20203;-67
2022/12/29 09:04:50;;;;;;;4.10;3.80;;;;;;;3.03;96.67;96680.44;5032408;28;20654;-70
2022/12/29 09:07:18;;;;;;;4.20;3.90;;;;;;;3.07;96.83;96678.31;5041341;28;20227;-69
2022/12/29 09:09:45;;;;;;;3.93;3.63;;;;;;;3.15;96.28;96683.63;5024833;28;20218;-69
2022/12/29 09:12:13;;;;;;;5.10;4.60;;;;;;;3.16;96.38;96682.66;5006686;28;20223;-65
2022/12/29 09:14:42;;;;;;;4.03;3.73;;;;;;;3.23;96.61;96684.69;5045465;28;20284;-70
2022/12/29 09:19:56;;;;;;;5.20;4.10;;;;;;;3.39;95.39;96676.97;5042091;28;20204;-68
2022/12/29 09:22:24;;;;;;;5.30;4.80;;;;;;;3.43;95.49;96680.13;5038285;28;20421;-69
2022/12/29 09:24:51;;;;;;;5.43;5.00;;;;;;;3.46;94.79;96670.16;5025995;28;20676;-69
2022/12/29 09:27:19;;;;;;;4.80;4.40;;;;;;;3.51;93.68;96669.72;5040027;28;20816;-69
2022/12/29 09:29:46;;;;;;;3.93;3.60;;;;;;;3.54;93.26;96661.53;4999641;28;20736;-69
2022/12/29 09:32:15;;;;;;;4.27;3.93;;;;;;;3.57;92.70;96674.34;5043461;28;20214;-67
2022/12/29 09:34:45;;;;;;;3.63;3.43;;;;;;;3.59;92.80;96671.53;5040748;28;20233;-67
2022/12/29 09:37:13;;;;;;;3.70;3.40;;;;;;;3.55;93.67;96664.97;5040633;28;20356;-67
2022/12/29 09:39:41;;;;;;;4.60;4.07;;;;;;;3.54;93.68;96666.78;5025519;28;20496;-68
2022/12/29 09:42:14;;;;;;;4.07;3.77;;;;;;;3.54;93.88;96672.03;5045713;28;20203;-67
2022/12/29 09:44:55;;;;;;;4.87;4.43;;;;;;;3.58;93.71;96672.53;5005980;28;20698;-69
2022/12/29 09:47:24;;;;;;;4.00;3.80;;;;;;;3.60;94.16;96667.97;5042986;28;20424;-70
2022/12/29 09:49:56;;;;;;;4.30;4.00;;;;;;;3.67;93.55;96658.53;5043939;28;21297;-70
2022/12/29 09:52:25;;;;;;;4.90;4.13;;;;;;;3.70;92.59;96655.59;5034232;28;20400;-66
2022/12/29 09:54:54;;;;;;;4.47;3.90;;;;;;;3.64;93.57;96650.13;5041770;28;20227;-70
2022/12/29 09:57:34;;;;;;;4.63;4.27;;;;;;;3.67;93.46;96652.44;5032651;28;20250;-68
2022/12/29 10:00:12;;;;;;;4.20;3.90;;;;;;;3.73;93.08;96643.97;5025758;28;20199;-67
2022/12/29 10:02:44;;;;;;;3.63;3.37;;;;;;;3.89;92.64;96646.72;5044763;28;20543;-70
2022/12/29 10:05:21;;;;;;;4.27;3.90;;;;;;;4.01;91.89;96647.28;5045868;28;20206;-68
2022/12/29 10:07:54;;;;;;;4.13;3.83;;;;;;;4.15;91.27;96645.03;5044356;28;20229;-70
2022/12/29 10:10:31;;;;;;;4.33;4.03;;;;;;;4.32;90.16;96633.63;5027109;28;20208;-69
2022/12/29 10:13:10;;;;;;;4.23;3.87;;;;;;;4.43;90.33;96629.09;5047501;28;20253;-67
2022/12/29 10:15:45;;;;;;;4.53;4.13;;;;;;;4.56;89.88;96639.16;5047203;28;20229;-69
2022/12/29 10:18:38;;;;;;;4.07;3.73;;;;;;;4.67;88.72;96630.13;4995643;28;20234;-68
2022/12/29 10:21:09;;;;;;;4.53;3.90;;;;;;;4.60;89.67;96624.72;5038207;28;20448;-67
2022/12/29 10:23:41;;;;;;;4.23;3.83;;;;;;;4.75;89.80;96628.34;5040608;28;20217;-70
2022/12/29 10:26:14;;;;;;;3.90;3.60;;;;;;;4.94;88.30;96618.56;5021358;28;20212;-67
2022/12/29 10:28:44;;;;;;;3.77;3.53;;;;;;;5.06;87.64;96613.78;5044952;28;20227;-70
2022/12/29 10:31:15;;;;;;;4.07;3.83;;;;;;;5.22;86.89;96605.94;5037459;28;20226;-68
2022/12/29 10:33:44;;;;;;;4.10;3.80;;;;;;;5.31;86.10;96608.56;5005394;28;20222;-71
2022/12/29 10:36:18;;;;;;;4.23;3.83;;;;;;;5.43;85.54;96609.03;5039454;28;20588;-68
2022/12/29 10:38:52;;;;;;;4.77;3.63;;;;;;;5.50;86.24;96604.75;5045408;28;20232;-70
2022/12/29 10:41:22;;;;;;;4.90;3.90;;;;;;;5.48;85.76;96607.53;5021569;28;20203;-69
2022/12/29 10:43:52;;;;;;;3.37;3.17;;;;;;;5.52;84.97;96609.88;5044187;28;20707;-70
2022/12/29 10:46:22;;;;;;;4.40;4.10;;;;;;;5.64;85.16;96605.91;5034130;28;20373;-70
2022/12/29 10:48:51;;;;;;;3.97;3.60;;;;;;;5.61;84.54;96593.88;4998443;28;20218;-70
2022/12/29 10:51:22;;;;;;;4.67;3.30;;;;;;;5.71;83.63;96595.53;5036519;28;20328;-69
2022/12/29 10:53:53;;;;;;;6.70;3.93;;;;;;;5.73;83.20;96591.75;5043975;28;20751;-70
2022/12/29 10:56:29;;;;;;;3.90;3.60;;;;;;;5.66;83.66;96590.78;5023450;28;20844;-69
2022/12/29 10:58:58;;;;;;;3.50;3.20;;;;;;;5.62;83.43;96606.03;5039306;28;20202;-67
2022/12/29 11:01:31;;;;;;;3.73;3.43;;;;;;;5.59;84.28;96601.13;5043073;28;20206;-67
2022/12/29 11:04:04;;;;;;;3.67;3.37;;;;;;;5.60;84.53;96600.13;4949881;28;20988;-69
2022/12/29 11:06:31;;;;;;;4.00;3.70;;;;;;;5.65;85.07;96597.03;5040205;28;20628;-68
2022/12/29 11:09:03;;;;;;;3.83;3.23;;;;;;;5.68;84.23;96588.78;5029988;28;20439;-70
2022/12/29 11:11:35;;;;;;;4.00;3.70;;;;;;;5.74;84.84;96598.63;5047376;28;20290;-70
2022/12/29 11:14:09;;;;;;;4.20;3.77;;;;;;;5.67;85.23;96592.41;5020480;28;20619;-68
2022/12/29 11:16:37;;;;;;;4.40;4.00;;;;;;;5.82;85.12;96597.81;5041704;28;20414;-68
2022/12/29 11:19:06;;;;;;;3.90;3.67;;;;;;;5.85;84.87;96597.47;5045064;28;20399;-69
2022/12/29 11:21:39;;;;;;;3.83;3.60;;;;;;;5.82;84.39;96597.81;4991402;28;20221;-68
2022/12/29 11:24:20;;;;;;;6.90;5.47;;;;;;;5.82;84.97;96594.34;5045207;28;20344;-67
2022/12/29 11:26:50;;;;;;;4.20;3.90;;;;;;;5.85;85.55;96599.25;5039698;28;20288;-68
2022/12/29 11:29:22;;;;;;;3.70;3.50;;;;;;;5.71;85.86;96596.34;5045646;28;20203;-69
2022/12/29 11:31:52;;;;;;;4.27;3.87;;;;;;;5.84;85.96;96598.47;5023522;28;20215;-67
2022/12/29 11:34:23;;;;;;;3.67;3.40;;;;;;;5.65;86.11;96586.50;5046538;28;20222;-68
2022/12/29 11:36:52;;;;;;;3.77;3.43;;;;;;;5.57;86.06;96587.34;4999970;28;20264;-68
2022/12/29 11:39:39;;;;;;;3.73;3.53;;;;;;;5.38;87.60;96591.13;5041464;28;20230;-69
2022/12/29 11:42:10;;;;;;;6.83;3.83;;;;;;;5.45;87.95;96601.81;5043744;28;20601;-69
2022/12/29 11:44:42;;;;;;;6.20;4.10;;;;;;;5.65;88.18;96591.75;5041855;28;20205;-67
2022/12/29 11:47:14;;;;;;;4.40;4.10;;;;;;;5.79;87.93;96587.63;5022965;28;20231;-68
2022/12/29 11:49:50;;;;;;;4.73;3.80;;;;;;;5.96;87.31;96580.50;5041913;28;20690;-67
2022/12/29 11:52:22;;;;;;;4.27;3.97;;;;;;;6.12;85.91;96584.09;4995888;28;20215;-69
2022/12/29 11:54:51;;;;;;;4.97;4.40;;;;;;;6.23;86.53;96581.91;5042592;28;20233;-67
2022/12/29 11:57:20;;;;;;;4.40;3.80;;;;;;;6.22;86.34;96575.00;5041986;28;20222;-67
2022/12/29 11:59:51;;;;;;;4.50;4.00;;;;;;;6.43;86.49;96557.00;5042285;28;20203;-68
2022/12/29 12:02:37;;;;;;;4.63;4.23;;;;;;;6.72;85.26;96558.94;5017739;28;20431;-70
2022/12/29 12:05:15;;;;;;;4.10;3.80;;;;;;;6.77;85.45;96561.06;5043071;28;20270;-69
2022/12/29 12:07:45;;;;;;;4.13;3.80;;;;;;;6.88;84.56;96552.75;4992499;28;20317;-69
2022/12/29 12:10:25;;;;;;;3.80;3.50;;;;;;;6.94;84.62;96559.94;5044066;28;20233;-70
2022/12/29 12:12:57;;;;;;;4.77;3.77;;;;;;;7.12;83.37;96545.66;5042377;28;20220;-69
2022/12/29 12:15:28;;;;;;;4.63;4.17;;;;;;;7.17;82.75;96548.56;5037916;28;20223;-68
2022/12/29 12:18:00;;;;;;;4.10;3.80;;;;;;;7.24;83.00;96549.50;5012762;28;20456;-69
2022/12/29 12:20:37;;;;;;;4.10;3.47;;;;;;;7.31;81.88;96549.59;5016453;28;20207;-67
2022/12/29 12:23:14;;;;;;;4.80;3.70;;;;;;;7.48;82.06;96552.91;5004188;28;20215;-69
2022/12/29 12:25:48;;;;;;;4.37;3.97;;;;;;;7.57;81.39;96537.81;5022359;28;20195;-68
2022/12/29 12:28:21;;;;;;;4.73;3.93;;;;;;;7.65;82.08;96540.38;5046349;28;20838;-68
2022/12/29 12:30:51;;;;;;;6.17;3.83;;;;;;;7.73;81.06;96530.75;5036065;28;20718;-70
2022/12/29 12:33:23;;;;;;;3.73;3.53;;;;;;;7.91;81.61;96533.00;5025259;28;20206;-68